Terminal Aerodrome Forecast
Issued by NWS Sterling, VA

Home | Current Version | Previous Version | Text Only | Print | Product List | Glossary On
Versions: 1 2 3 4 5 6 7 8 9 10 11 12 13 14 15 16 17 18 19 20 21 22 23
000
FTUS41 KLWX 011700 AAA
TAFDCA
TAF AMD
KDCA 011736Z 0118/0212 18006KT P6SM OVC090
     FM020000 14007KT P6SM OVC025
     FM020200 14007KT P6SM RA OVC025
     FM020300 13007KT P6SM RA OVC050
     FM020500 15007KT 3SM RA OVC050
     FM020800 17007KT 6SM -RA OVC015 WS020/20040KT
     FM021100 20006KT 6SM -RA OVC003=

USA.gov is the U.S. government's official web portal to all federal, state and local government web resources and services.